createdAt,value
2018-05-23T00:00:02.133Z,98201.52
2018-05-23T00:02:29.698Z,98202.09
2018-05-23T00:04:57.237Z,98199.69
2018-05-23T00:07:24.861Z,98200.76
2018-05-23T00:09:52.399Z,98203.38
2018-05-23T00:12:19.941Z,98204.96
2018-05-23T00:14:48.211Z,98203.36
2018-05-23T00:17:16.775Z,98212.44
2018-05-23T00:19:44.339Z,98216.91
2018-05-23T00:22:11.856Z,98224.30
2018-05-23T00:24:39.402Z,98222.73
2018-05-23T00:27:07.028Z,98220.28
2018-05-23T00:29:34.556Z,98219.63
2018-05-23T00:32:02.144Z,98212.67
2018-05-23T00:34:29.683Z,98217.71
2018-05-23T00:36:57.252Z,98213.66
2018-05-23T00:39:24.750Z,98221.59
2018-05-23T00:41:52.303Z,98224.14
2018-05-23T00:44:19.844Z,98218.34
2018-05-23T00:46:47.393Z,98221.12
2018-05-23T00:49:14.958Z,98223.56
2018-05-23T00:51:42.488Z,98228.29
2018-05-23T00:54:10.262Z,98230.63
2018-05-23T00:56:38.682Z,98229.31
2018-05-23T00:59:06.296Z,98234.59
2018-05-23T01:01:34.029Z,98235.85
2018-05-23T01:04:01.581Z,98233.30
2018-05-23T01:06:29.155Z,98233.09
2018-05-23T01:08:56.707Z,98233.09
2018-05-23T01:11:24.254Z,98232.34
2018-05-23T01:13:51.887Z,98233.95
2018-05-23T01:16:19.474Z,98228.36
2018-05-23T01:18:47.007Z,98233.00
2018-05-23T01:21:14.662Z,98232.05
2018-05-23T01:23:42.211Z,98226.19
2018-05-23T01:26:09.864Z,98229.12
2018-05-23T01:28:37.414Z,98228.74
2018-05-23T01:31:05.234Z,98235.19
2018-05-23T01:33:32.755Z,98232.52
2018-05-23T01:36:00.306Z,98237.62
2018-05-23T01:38:27.880Z,98233.69
2018-05-23T01:40:55.448Z,98233.80
2018-05-23T01:43:23.005Z,98242.20
2018-05-23T01:45:50.544Z,98240.44
2018-05-23T01:48:18.121Z,98241.02
2018-05-23T01:50:45.650Z,98242.94
2018-05-23T01:53:13.206Z,98248.31
2018-05-23T01:55:40.872Z,98249.59
2018-05-23T01:58:08.641Z,98249.06
2018-05-23T02:00:36.175Z,98251.88
2018-05-23T02:03:03.742Z,98249.64
2018-05-23T02:05:31.296Z,98243.21
2018-05-23T02:07:58.911Z,98250.99
2018-05-23T02:10:26.457Z,98246.95
2018-05-23T02:12:54.070Z,98255.47
2018-05-23T02:15:21.609Z,98247.22
2018-05-23T02:20:39.733Z,98245.61
2018-05-23T02:23:07.329Z,98246.21
2018-05-23T02:25:34.883Z,98241.63
2018-05-23T02:28:02.503Z,98247.00
2018-05-23T02:30:30.086Z,98242.05
2018-05-23T02:32:57.936Z,98247.80
2018-05-23T02:35:25.480Z,98245.89
2018-05-23T02:37:53.075Z,98241.37
2018-05-23T02:40:20.622Z,98248.48
2018-05-23T02:42:48.328Z,98252.05
2018-05-23T02:45:15.859Z,98255.16
2018-05-23T02:47:43.527Z,98251.70
2018-05-23T02:50:11.159Z,98249.80
2018-05-23T02:52:38.737Z,98255.02
2018-05-23T02:55:06.294Z,98247.48
2018-05-23T02:57:33.840Z,98245.06
2018-05-23T03:00:01.523Z,98245.11
2018-05-23T03:02:29.184Z,98237.99
2018-05-23T03:04:56.706Z,98245.58
2018-05-23T03:07:24.541Z,98239.27
2018-05-23T03:09:52.130Z,98233.00
2018-05-23T03:12:19.693Z,98226.89
2018-05-23T03:14:47.238Z,98225.89
2018-05-23T03:17:14.825Z,98224.78
2018-05-23T03:19:42.405Z,98226.34
2018-05-23T03:22:09.951Z,98234.22
2018-05-23T03:24:37.608Z,98231.75
2018-05-23T03:27:05.514Z,98241.52
2018-05-23T03:29:33.155Z,98244.38
2018-05-23T03:32:01.248Z,98244.70
2018-05-23T03:34:28.995Z,98243.77
2018-05-23T03:36:56.548Z,98237.54
2018-05-23T03:39:24.131Z,98229.09
2018-05-23T03:41:51.656Z,98234.88
2018-05-23T03:44:19.209Z,98234.45
2018-05-23T03:46:47.471Z,98246.27
2018-05-23T03:49:15.036Z,98244.23
2018-05-23T03:51:42.595Z,98246.31
2018-05-23T03:54:10.505Z,98247.95
2018-05-23T03:56:38.076Z,98244.84
2018-05-23T03:59:05.801Z,98245.63
2018-05-23T04:01:45.359Z,98255.64
2018-05-23T04:04:24.628Z,98261.86
2018-05-23T04:07:03.848Z,98270.53
2018-05-23T04:09:33.508Z,98269.16
2018-05-23T04:12:01.082Z,98270.77
2018-05-23T04:14:28.628Z,98269.01
2018-05-23T04:16:56.224Z,98265.17
2018-05-23T04:19:23.788Z,98283.06
2018-05-23T04:21:51.939Z,98292.84
2018-05-23T04:24:19.496Z,98296.26
2018-05-23T04:26:48.057Z,98300.98
2018-05-23T04:29:15.634Z,98308.10
2018-05-23T04:31:43.210Z,98305.83
2018-05-23T04:34:10.740Z,98306.36
2018-05-23T04:36:38.311Z,98307.16
2018-05-23T04:39:06.894Z,98309.53
2018-05-23T04:41:34.460Z,98316.61
2018-05-23T04:44:02.051Z,98319.76
2018-05-23T04:46:29.634Z,98320.83
2018-05-23T04:48:57.196Z,98325.91
2018-05-23T04:51:24.915Z,98326.79
2018-05-23T04:53:52.475Z,98331.53
2018-05-23T04:56:20.017Z,98331.44
2018-05-23T04:58:47.806Z,98337.86
2018-05-23T05:01:15.363Z,98349.41
2018-05-23T05:03:42.896Z,98348.92
2018-05-23T05:06:10.586Z,98356.84
2018-05-23T05:08:38.357Z,98357.31
2018-05-23T05:11:06.095Z,98362.22
2018-05-23T05:13:33.704Z,98353.50
2018-05-23T05:16:01.245Z,98365.17
2018-05-23T05:18:28.807Z,98364.81
2018-05-23T05:20:56.371Z,98369.77
2018-05-23T05:23:23.934Z,98373.17
2018-05-23T05:25:51.454Z,98372.67
2018-05-23T05:28:19.204Z,98374.45
2018-05-23T05:30:46.735Z,98377.83
2018-05-23T05:33:14.293Z,98384.39
2018-05-23T05:35:41.847Z,98389.83
2018-05-23T05:38:09.421Z,98392.77
2018-05-23T05:40:36.967Z,98391.31
2018-05-23T05:43:04.542Z,98393.11
2018-05-23T05:45:32.107Z,98395.94
2018-05-23T05:47:59.734Z,98393.74
2018-05-23T05:50:27.290Z,98396.45
2018-05-23T05:52:54.863Z,98396.56
2018-05-23T05:55:22.454Z,98406.34
2018-05-23T05:57:49.999Z,98407.31
2018-05-23T06:00:17.683Z,98414.95
2018-05-23T06:02:45.238Z,98414.76
2018-05-23T06:05:13.290Z,98422.80
2018-05-23T06:07:40.830Z,98419.06
2018-05-23T06:10:08.416Z,98430.01
2018-05-23T06:12:35.971Z,98435.92
2018-05-23T06:15:03.577Z,98436.97
2018-05-23T06:17:31.145Z,98432.06
2018-05-23T06:19:58.686Z,98447.22
2018-05-23T06:22:26.301Z,98446.34
2018-05-23T06:24:54.120Z,98442.26
2018-05-23T06:27:21.651Z,98445.10
2018-05-23T06:29:49.290Z,98446.98
2018-05-23T06:32:17.919Z,98445.16
2018-05-23T06:34:45.585Z,98447.20
2018-05-23T06:37:13.121Z,98450.56
2018-05-23T06:39:40.763Z,98454.31
2018-05-23T06:42:08.309Z,98453.89
2018-05-23T06:44:35.942Z,98448.05
2018-05-23T06:47:03.510Z,98455.18
2018-05-23T06:49:31.149Z,98442.24
2018-05-23T06:51:58.680Z,98447.67
2018-05-23T06:54:26.471Z,98446.39
2018-05-23T06:56:54.165Z,98452.03
2018-05-23T06:59:21.912Z,98454.96
2018-05-23T07:01:49.666Z,98457.65
2018-05-23T07:04:17.243Z,98464.30
2018-05-23T07:06:44.883Z,98461.30
2018-05-23T07:09:13.182Z,98470.24
2018-05-23T07:11:40.743Z,98468.80
2018-05-23T07:14:08.367Z,98466.44
2018-05-23T07:16:36.044Z,98482.52
2018-05-23T07:19:03.648Z,98481.05
2018-05-23T07:21:31.187Z,98482.06
2018-05-23T07:23:59.706Z,98483.21
2018-05-23T07:26:27.405Z,98483.86
2018-05-23T07:28:54.937Z,98482.91
2018-05-23T07:31:23.488Z,98483.53
2018-05-23T07:33:51.016Z,98482.34
2018-05-23T07:36:19.593Z,98484.72
2018-05-23T07:38:47.149Z,98484.73
2018-05-23T07:41:14.715Z,98480.94
2018-05-23T07:43:42.263Z,98482.95
2018-05-23T07:46:10.477Z,98485.23
2018-05-23T07:48:39.033Z,98486.38
2018-05-23T07:51:06.694Z,98492.14
2018-05-23T07:53:34.349Z,98490.77
2018-05-23T07:56:01.912Z,98496.27
2018-05-23T07:58:29.463Z,98487.39
2018-05-23T08:00:56.969Z,98493.51
2018-05-23T08:03:24.579Z,98500.65
2018-05-23T08:05:52.099Z,98501.31
2018-05-23T08:08:19.620Z,98505.98
2018-05-23T08:10:47.223Z,98497.25
2018-05-23T08:13:14.758Z,98499.02
2018-05-23T08:15:42.315Z,98497.39
2018-05-23T08:18:10.093Z,98501.36
2018-05-23T08:20:37.713Z,98502.44
2018-05-23T08:23:05.226Z,98509.84
2018-05-23T08:25:33.566Z,98514.11
2018-05-23T08:28:01.148Z,98513.36
2018-05-23T08:30:28.750Z,98521.50
2018-05-23T08:32:56.293Z,98518.38
2018-05-23T08:35:23.986Z,98513.70
2018-05-23T08:37:51.598Z,98518.55
2018-05-23T08:40:19.139Z,98518.30
2018-05-23T08:42:46.671Z,98509.57
2018-05-23T08:45:14.388Z,98516.83
2018-05-23T08:47:42.088Z,98516.13
2018-05-23T08:50:09.683Z,98520.75
2018-05-23T08:52:37.316Z,98515.46
2018-05-23T08:55:05.288Z,98519.52
2018-05-23T08:57:33.875Z,98521.68
2018-05-23T09:00:01.538Z,98522.60
2018-05-23T09:02:29.080Z,98521.28
2018-05-23T09:04:56.639Z,98523.98
2018-05-23T09:07:25.257Z,98529.63
2018-05-23T09:09:52.714Z,98529.70
2018-05-23T09:12:20.479Z,98531.91
2018-05-23T09:14:48.031Z,98537.66
2018-05-23T09:17:15.734Z,98540.81
2018-05-23T09:19:43.280Z,98538.34
2018-05-23T09:22:10.826Z,98538.83
2018-05-23T09:24:38.380Z,98537.75
2018-05-23T09:27:06.012Z,98535.17
2018-05-23T09:29:33.664Z,98536.67
2018-05-23T09:32:01.449Z,98537.91
2018-05-23T09:34:29.102Z,98541.11
2018-05-23T09:36:56.626Z,98536.32
2018-05-23T09:39:24.298Z,98543.93
2018-05-23T09:41:51.969Z,98537.52
2018-05-23T09:44:19.530Z,98536.30
2018-05-23T09:46:47.292Z,98543.08
2018-05-23T09:49:14.884Z,98543.09
2018-05-23T09:51:42.430Z,98545.11
2018-05-23T09:54:09.973Z,98546.52
2018-05-23T09:56:37.650Z,98546.16
2018-05-23T09:59:05.267Z,98542.06
2018-05-23T10:01:33.197Z,98541.84
2018-05-23T10:04:00.696Z,98546.28
2018-05-23T10:06:28.468Z,98546.38
2018-05-23T10:08:56.101Z,98537.69
2018-05-23T10:11:23.727Z,98540.89
2018-05-23T10:13:51.388Z,98541.76
2018-05-23T10:16:19.055Z,98539.13
2018-05-23T10:18:46.602Z,98547.48
2018-05-23T10:21:14.141Z,98530.82
2018-05-23T10:23:41.685Z,98540.73
2018-05-23T10:26:09.213Z,98544.31
2018-05-23T10:28:36.777Z,98545.59
2018-05-23T10:31:04.312Z,98538.16
2018-05-23T10:33:31.916Z,98539.09
2018-05-23T10:35:59.469Z,98539.44
2018-05-23T10:38:27.004Z,98530.11
2018-05-23T10:40:54.531Z,98536.80
2018-05-23T10:43:22.080Z,98541.39
2018-05-23T10:45:49.664Z,98545.25
2018-05-23T10:48:17.199Z,98542.72
2018-05-23T10:50:44.781Z,98539.11
2018-05-23T10:53:12.387Z,98547.72
2018-05-23T10:55:40.002Z,98543.50
2018-05-23T10:58:07.551Z,98544.36
2018-05-23T11:00:35.225Z,98545.20
2018-05-23T11:03:02.906Z,98543.11
2018-05-23T11:05:30.387Z,98536.42
2018-05-23T11:07:57.925Z,98535.77
2018-05-23T11:10:25.668Z,98528.77
2018-05-23T11:12:53.328Z,98530.84
2018-05-23T11:15:20.980Z,98524.40
2018-05-23T11:17:48.465Z,98529.05
2018-05-23T11:20:16.019Z,98522.14
2018-05-23T11:22:43.871Z,98519.02
2018-05-23T11:25:11.525Z,98518.89
2018-05-23T11:27:39.197Z,98511.98
2018-05-23T11:30:07.103Z,98509.00
2018-05-23T11:32:34.887Z,98505.03
2018-05-23T11:35:02.486Z,98506.82
2018-05-23T11:37:30.049Z,98504.93
2018-05-23T11:39:57.689Z,98505.66
2018-05-23T11:42:25.224Z,98498.13
2018-05-23T11:44:53.332Z,98502.44
2018-05-23T11:47:20.874Z,98503.29
2018-05-23T11:49:48.425Z,98490.54
2018-05-23T11:52:16.015Z,98490.39
2018-05-23T11:54:43.651Z,98486.45
2018-05-23T11:57:11.121Z,98484.33
2018-05-23T11:59:38.798Z,98482.56
2018-05-23T12:02:06.363Z,98477.46
2018-05-23T12:04:33.909Z,98471.48
2018-05-23T12:07:01.452Z,98468.18
2018-05-23T12:09:29.000Z,98471.66
2018-05-23T12:11:56.594Z,98458.21
2018-05-23T12:14:24.157Z,98459.84
2018-05-23T12:16:51.793Z,98453.34
2018-05-23T12:19:19.860Z,98451.18
2018-05-23T12:21:47.406Z,98449.63
2018-05-23T12:24:15.063Z,98444.73
2018-05-23T12:26:42.588Z,98442.80
2018-05-23T12:29:10.135Z,98429.39
2018-05-23T12:31:37.642Z,98425.30
2018-05-23T12:34:05.173Z,98427.11
2018-05-23T12:36:32.814Z,98433.81
2018-05-23T12:39:00.441Z,98432.35
2018-05-23T12:41:28.013Z,98433.53
2018-05-23T12:43:55.540Z,98429.16
2018-05-23T12:46:23.325Z,98433.83
2018-05-23T12:48:50.837Z,98438.16
2018-05-23T12:51:18.381Z,98432.19
2018-05-23T12:53:46.226Z,98430.12
2018-05-23T12:56:13.872Z,98435.70
2018-05-23T12:58:41.451Z,98433.94
2018-05-23T13:01:09.497Z,98428.32
2018-05-23T13:03:37.049Z,98430.58
2018-05-23T13:06:04.653Z,98428.81
2018-05-23T13:08:32.213Z,98425.27
2018-05-23T13:10:59.873Z,98425.05
2018-05-23T13:13:27.462Z,98421.41
2018-05-23T13:15:55.166Z,98420.26
2018-05-23T13:18:22.972Z,98421.20
2018-05-23T13:20:50.507Z,98420.02
2018-05-23T13:23:18.045Z,98416.55
2018-05-23T13:25:45.783Z,98414.20
2018-05-23T13:28:13.454Z,98411.70
2018-05-23T13:30:41.046Z,98416.16
2018-05-23T13:33:08.598Z,98410.75
2018-05-23T13:35:36.147Z,98410.12
2018-05-23T13:38:03.716Z,98401.14
2018-05-23T13:40:32.004Z,98394.66
2018-05-23T13:42:59.594Z,98393.45
2018-05-23T13:45:27.175Z,98389.70
2018-05-23T13:47:55.269Z,98389.88
2018-05-23T13:50:22.847Z,98387.14
2018-05-23T13:52:50.428Z,98386.70
2018-05-23T13:55:18.060Z,98385.30
2018-05-23T13:57:45.631Z,98382.49
2018-05-23T14:00:13.223Z,98374.11
2018-05-23T14:02:40.816Z,98370.73
2018-05-23T14:05:08.345Z,98366.91
2018-05-23T14:07:35.884Z,98371.77
2018-05-23T14:10:03.537Z,98365.23
2018-05-23T14:12:31.714Z,98362.34
2018-05-23T14:14:59.247Z,98356.52
2018-05-23T14:17:26.796Z,98361.16
2018-05-23T14:19:54.352Z,98364.13
2018-05-23T14:22:21.924Z,98368.22
2018-05-23T14:24:49.459Z,98361.98
2018-05-23T14:27:17.010Z,98361.83
2018-05-23T14:29:44.579Z,98364.20
2018-05-23T14:32:12.104Z,98359.95
2018-05-23T14:34:39.660Z,98359.89
2018-05-23T14:37:07.215Z,98358.91
2018-05-23T14:39:34.803Z,98357.22
2018-05-23T14:42:02.515Z,98358.60
2018-05-23T14:44:30.104Z,98361.91
2018-05-23T14:46:57.648Z,98360.45
2018-05-23T14:49:25.300Z,98353.98
2018-05-23T14:51:52.965Z,98344.75
2018-05-23T14:54:20.499Z,98348.68
2018-05-23T14:56:48.066Z,98340.42
2018-05-23T14:59:15.637Z,98338.00
2018-05-23T15:01:43.383Z,98331.44
2018-05-23T15:04:10.926Z,98330.58
2018-05-23T15:06:38.549Z,98325.80
2018-05-23T15:09:06.112Z,98327.70
2018-05-23T15:11:33.774Z,98324.81
2018-05-23T15:14:01.299Z,98318.58
2018-05-23T15:16:28.837Z,98324.53
2018-05-23T15:18:56.396Z,98316.45
2018-05-23T15:21:23.943Z,98319.06
2018-05-23T15:23:51.492Z,98322.99
2018-05-23T15:26:19.435Z,98322.41
2018-05-23T15:28:47.008Z,98325.29
2018-05-23T15:31:14.648Z,98321.97
2018-05-23T15:33:42.155Z,98322.42
2018-05-23T15:36:09.730Z,98317.09
2018-05-23T15:38:37.317Z,98317.75
2018-05-23T15:41:04.847Z,98315.00
2018-05-23T15:43:32.408Z,98313.05
2018-05-23T15:45:59.990Z,98315.94
2018-05-23T15:48:27.501Z,98314.40
2018-05-23T15:50:55.101Z,98310.86
2018-05-23T15:53:22.707Z,98305.61
2018-05-23T15:55:50.279Z,98300.43
2018-05-23T15:58:17.818Z,98299.41
2018-05-23T16:00:45.605Z,98305.20
2018-05-23T16:03:13.168Z,98307.38
2018-05-23T16:05:40.727Z,98307.92
2018-05-23T16:08:08.510Z,98311.39
2018-05-23T16:10:36.219Z,98300.67
2018-05-23T16:13:03.768Z,98304.09
2018-05-23T16:15:31.307Z,98305.24
2018-05-23T16:17:58.854Z,98301.55
2018-05-23T16:20:26.381Z,98298.81
2018-05-23T16:22:53.985Z,98305.45
2018-05-23T16:25:21.585Z,98296.77
2018-05-23T16:27:49.387Z,98297.26
2018-05-23T16:30:17.014Z,98303.83
2018-05-23T16:32:44.569Z,98301.16
2018-05-23T16:35:12.111Z,98308.31
2018-05-23T16:37:39.680Z,98303.34
2018-05-23T16:40:07.240Z,98304.34
2018-05-23T16:42:34.842Z,98298.56
2018-05-23T16:45:02.403Z,98298.82
2018-05-23T16:47:29.962Z,98303.23
2018-05-23T16:49:57.503Z,98299.63
2018-05-23T16:52:25.082Z,98306.59
2018-05-23T16:54:52.596Z,98305.25
2018-05-23T16:57:20.194Z,98309.09
2018-05-23T16:59:47.744Z,98305.05
2018-05-23T17:02:15.444Z,98300.84
2018-05-23T17:04:42.998Z,98305.84
2018-05-23T17:07:11.166Z,98309.97
2018-05-23T17:09:38.765Z,98309.14
2018-05-23T17:12:06.414Z,98312.02
2018-05-23T17:14:33.991Z,98312.48
2018-05-23T17:17:01.511Z,98314.31
2018-05-23T17:19:29.072Z,98320.06
2018-05-23T17:21:56.601Z,98319.88
2018-05-23T17:24:24.145Z,98325.81
2018-05-23T17:26:51.671Z,98321.25
2018-05-23T17:29:19.311Z,98321.76
2018-05-23T17:31:46.849Z,98327.84
2018-05-23T17:34:14.472Z,98326.56
2018-05-23T17:36:42.032Z,98324.81
2018-05-23T17:39:09.568Z,98336.20
2018-05-23T17:41:37.220Z,98332.52
2018-05-23T17:44:04.811Z,98335.67
2018-05-23T17:46:32.392Z,98325.03
2018-05-23T17:48:59.937Z,98318.79
2018-05-23T17:51:27.452Z,98318.95
2018-05-23T17:53:54.988Z,98322.88
2018-05-23T17:56:22.521Z,98328.05
2018-05-23T17:58:50.073Z,98322.48
2018-05-23T18:01:17.696Z,98333.02
2018-05-23T18:03:45.216Z,98339.68
2018-05-23T18:06:12.887Z,98335.09
2018-05-23T18:08:40.361Z,98339.84
2018-05-23T18:11:07.913Z,98335.33
2018-05-23T18:13:35.431Z,98343.56
2018-05-23T18:16:02.970Z,98350.30
2018-05-23T18:18:30.517Z,98365.53
2018-05-23T18:20:58.066Z,98371.71
2018-05-23T18:23:25.781Z,98384.20
2018-05-23T18:25:53.286Z,98378.81
2018-05-23T18:28:20.925Z,98373.95
2018-05-23T18:30:48.488Z,98372.67
2018-05-23T18:33:16.097Z,98382.42
2018-05-23T18:35:44.111Z,98386.09
2018-05-23T18:38:11.669Z,98385.56
2018-05-23T18:40:39.203Z,98388.23
2018-05-23T18:43:06.760Z,98387.04
2018-05-23T18:45:34.311Z,98387.00
2018-05-23T18:48:01.893Z,98383.64
2018-05-23T18:50:29.517Z,98385.02
2018-05-23T18:52:57.044Z,98388.58
2018-05-23T18:55:24.600Z,98391.31
2018-05-23T18:57:52.147Z,98392.23
2018-05-23T19:00:19.711Z,98395.30
2018-05-23T19:02:47.460Z,98398.69
2018-05-23T19:05:15.092Z,98406.67
2018-05-23T19:07:42.574Z,98402.80
2018-05-23T19:10:10.182Z,98400.55
2018-05-23T19:12:37.717Z,98404.05
2018-05-23T19:15:05.494Z,98409.21
2018-05-23T19:17:33.065Z,98421.78
2018-05-23T19:20:00.697Z,98423.69
2018-05-23T19:22:28.270Z,98439.91
2018-05-23T19:24:55.914Z,98440.48
2018-05-23T19:27:23.487Z,98435.58
2018-05-23T19:29:51.041Z,98434.64
2018-05-23T19:32:18.592Z,98439.22
2018-05-23T19:34:46.141Z,98442.15
2018-05-23T19:37:14.269Z,98440.48
2018-05-23T19:39:41.882Z,98442.05
2018-05-23T19:42:09.388Z,98435.98
2018-05-23T19:44:37.058Z,98442.03
2018-05-23T19:47:04.599Z,98446.48
2018-05-23T19:49:32.147Z,98455.41
2018-05-23T19:52:00.149Z,98448.92
2018-05-23T19:54:27.696Z,98454.84
2018-05-23T19:56:55.231Z,98462.05
2018-05-23T19:59:22.765Z,98459.35
2018-05-23T20:01:50.479Z,98461.80
2018-05-23T20:04:18.108Z,98463.27
2018-05-23T20:06:45.627Z,98460.00
2018-05-23T20:09:13.164Z,98455.20
2018-05-23T20:11:40.683Z,98463.45
2018-05-23T20:14:08.346Z,98460.50
2018-05-23T20:16:35.950Z,98461.48
2018-05-23T20:19:03.514Z,98462.56
2018-05-23T20:21:31.084Z,98450.42
2018-05-23T20:23:59.244Z,98455.28
2018-05-23T20:26:26.764Z,98451.03
2018-05-23T20:28:54.292Z,98459.48
2018-05-23T20:31:21.807Z,98460.10
2018-05-23T20:33:49.339Z,98456.64
2018-05-23T20:36:16.855Z,98460.98
2018-05-23T20:38:44.384Z,98458.36
2018-05-23T20:41:11.908Z,98461.66
2018-05-23T20:43:39.445Z,98452.41
2018-05-23T20:46:07.011Z,98450.59
2018-05-23T20:48:34.584Z,98445.30
2018-05-23T20:51:02.144Z,98437.00
2018-05-23T20:53:29.691Z,98438.49
2018-05-23T20:55:57.215Z,98446.63
2018-05-23T20:58:24.799Z,98439.16
2018-05-23T21:00:52.434Z,98441.30
2018-05-23T21:03:19.977Z,98436.73
2018-05-23T21:05:47.728Z,98447.22
2018-05-23T21:08:15.180Z,98446.97
2018-05-23T21:10:43.291Z,98452.48
2018-05-23T21:13:10.845Z,98454.84
2018-05-23T21:15:38.621Z,98451.98
2018-05-23T21:18:06.188Z,98451.98
2018-05-23T21:20:33.766Z,98459.56
2018-05-23T21:23:01.285Z,98461.37
2018-05-23T21:25:28.855Z,98459.73
2018-05-23T21:27:56.800Z,98463.02
2018-05-23T21:30:24.312Z,98461.37
2018-05-23T21:32:51.858Z,98458.02
2018-05-23T21:35:19.417Z,98466.69
2018-05-23T21:37:46.955Z,98464.18
2018-05-23T21:40:14.927Z,98467.92
2018-05-23T21:42:42.602Z,98470.59
2018-05-23T21:45:10.153Z,98471.56
2018-05-23T21:47:37.682Z,98467.84
2018-05-23T21:50:05.283Z,98470.69
2018-05-23T21:52:32.808Z,98475.14
2018-05-23T21:55:00.383Z,98474.23
2018-05-23T21:57:27.957Z,98469.80
2018-05-23T21:59:55.454Z,98470.88
2018-05-23T22:02:22.983Z,98463.95
2018-05-23T22:04:50.544Z,98466.41
2018-05-23T22:07:18.077Z,98466.47
2018-05-23T22:09:45.658Z,98472.20
2018-05-23T22:12:13.315Z,98475.57
2018-05-23T22:14:40.801Z,98467.58
2018-05-23T22:17:08.362Z,98464.33
2018-05-23T22:19:35.909Z,98468.50
2018-05-23T22:22:03.415Z,98468.81
2018-05-23T22:24:30.969Z,98463.17
2018-05-23T22:26:58.533Z,98457.20
2018-05-23T22:29:26.071Z,98455.73
2018-05-23T22:31:53.654Z,98453.80
2018-05-23T22:34:21.456Z,98456.20
2018-05-23T22:36:49.021Z,98453.70
2018-05-23T22:39:16.597Z,98448.04
2018-05-23T22:41:44.149Z,98451.78
2018-05-23T22:44:11.696Z,98448.91
2018-05-23T22:46:39.273Z,98448.67
2018-05-23T22:49:06.924Z,98447.13
2018-05-23T22:51:34.462Z,98446.13
2018-05-23T22:54:02.333Z,98446.14
2018-05-23T22:56:29.884Z,98450.77
2018-05-23T22:58:57.415Z,98446.87
2018-05-23T23:01:25.010Z,98447.98
2018-05-23T23:03:52.586Z,98448.61
2018-05-23T23:06:20.151Z,98451.70
2018-05-23T23:08:47.703Z,98456.22
2018-05-23T23:11:15.266Z,98454.63
2018-05-23T23:13:42.827Z,98445.61
2018-05-23T23:16:10.381Z,98461.31
2018-05-23T23:18:37.977Z,98463.02
2018-05-23T23:21:05.719Z,98460.03
2018-05-23T23:23:33.282Z,98465.17
2018-05-23T23:26:00.841Z,98467.28
2018-05-23T23:28:28.409Z,98466.16
2018-05-23T23:30:55.969Z,98461.94
2018-05-23T23:33:23.530Z,98462.61
2018-05-23T23:35:51.106Z,98466.40
2018-05-23T23:38:18.635Z,98469.10
2018-05-23T23:40:46.182Z,98467.12
2018-05-23T23:43:13.739Z,98472.98
2018-05-23T23:45:41.306Z,98466.04
2018-05-23T23:48:08.865Z,98467.08
2018-05-23T23:50:36.415Z,98464.62
2018-05-23T23:53:04.017Z,98473.22
2018-05-23T23:55:31.570Z,98471.61
2018-05-23T23:57:59.129Z,98477.45
